Time;durP1;ratioP1;P1;durP2;ratioP2;P2;SDS_P1;SDS_P2;PMS_P1;PMS_P2;Temp;Humidity;BMP_temperature;BMP_pressure;BME280_temperature;BME280_humidity;BME280_pressure;Samples;Min_cycle;Max_cycle;Signal;HPM_P1;HPM_P2
2023/10/26 00:02:07;;;;;;;;;19.50;18.75;;;;;-143.90;100.00;74411.50;5006929;28;101637;-76
2023/10/26 00:04:33;;;;;;;;;23.00;19.75;;;;;-143.90;100.00;74411.50;4992768;27;101718;-77
2023/10/26 00:07:00;;;;;;;;;15.50;15.25;;;;;-143.90;100.00;74415.63;4998097;27;103437;-76
2023/10/26 00:09:27;;;;;;;;;20.75;18.00;;;;;-143.90;100.00;74423.88;4991393;28;101785;-76
2023/10/26 00:11:54;;;;;;;;;25.00;18.75;;;;;-143.90;100.00;74423.88;5006876;27;101464;-76
2023/10/26 00:14:20;;;;;;;;;19.75;14.75;;;;;-143.90;100.00;74434.22;5001906;27;102002;-76
2023/10/26 00:16:47;;;;;;;;;26.00;24.50;;;;;-143.90;100.00;74438.38;4998927;27;103373;-76
2023/10/26 00:19:13;;;;;;;;;44.75;37.25;;;;;-143.90;100.00;74469.38;4990051;28;101998;-76
2023/10/26 00:21:41;;;;;;;;;36.00;32.25;;;;;-143.90;100.00;74471.44;4993070;28;102564;-72
2023/10/26 00:24:08;;;;;;;;;39.25;33.75;;;;;-143.90;100.00;74473.50;5005492;28;103011;-76
2023/10/26 00:26:35;;;;;;;;;28.50;22.75;;;;;-143.90;100.00;74475.56;4998965;27;103310;-77
2023/10/26 00:29:01;;;;;;;;;20.25;17.25;;;;;-143.90;100.00;74477.63;4995417;28;101908;-76
2023/10/26 00:31:28;;;;;;;;;13.75;13.75;;;;;-143.90;100.00;74473.50;4991505;28;102549;-77
2023/10/26 00:33:54;;;;;;;;;17.25;14.75;;;;;-143.90;100.00;74473.50;4991094;28;101639;-76
2023/10/26 00:36:21;;;;;;;;;14.50;12.00;;;;;-143.90;100.00;74477.63;4999040;28;103503;-76
2023/10/26 00:38:47;;;;;;;;;15.00;14.00;;;;;-143.90;100.00;74473.50;4997472;27;102000;-76
2023/10/26 00:41:14;;;;;;;;;13.00;12.50;;;;;-143.90;100.00;74465.22;4995503;27;101457;-76
2023/10/26 00:43:41;;;;;;;;;17.75;14.50;;;;;-143.90;100.00;74471.44;4975735;27;102097;-74
2023/10/26 00:46:10;;;;;;;;;16.25;11.00;;;;;-143.90;100.00;74479.69;4998958;27;103537;-76
2023/10/26 00:48:38;;;;;;;;;17.00;14.50;;;;;-143.90;100.00;74467.31;5001343;27;101993;-76
2023/10/26 00:51:05;;;;;;;;;26.75;25.00;;;;;-143.90;100.00;74465.22;4997273;27;101648;-76
2023/10/26 00:53:32;;;;;;;;;32.50;29.00;;;;;-143.90;100.00;74465.22;4995677;28;101577;-76
2023/10/26 00:55:59;;;;;;;;;12.00;6.00;;;;;-143.90;100.00;74452.84;4981788;28;103405;-76
2023/10/26 00:58:29;;;;;;;;;42.25;35.50;;;;;-143.90;100.00;74448.69;5005772;27;101660;-76
2023/10/26 01:00:56;;;;;;;;;29.75;26.00;;;;;-143.90;100.00;74436.28;4993146;28;104971;-76
2023/10/26 01:03:27;;;;;;;;;34.50;24.00;;;;;-143.90;100.00;74425.97;4998483;28;101562;-76
2023/10/26 01:05:54;;;;;;;;;27.25;19.25;;;;;-143.90;100.00;74417.69;4973506;28;103718;-75
2023/10/26 01:08:21;;;;;;;;;29.00;26.25;;;;;-143.90;100.00;74415.63;4998221;28;101800;-76
2023/10/26 01:10:47;;;;;;;;;24.50;20.75;;;;;-143.90;100.00;74413.56;4999160;27;101932;-75
2023/10/26 01:13:14;;;;;;;;;27.50;26.50;;;;;-143.90;100.00;74415.63;4998241;28;101812;-76
2023/10/26 01:15:40;;;;;;;;;18.50;16.00;;;;;-143.90;100.00;74413.56;4998400;28;103360;-75
2023/10/26 01:18:07;;;;;;;;;18.25;18.00;;;;;-143.90;100.00;74407.34;4995518;28;102019;-76
2023/10/26 01:20:35;;;;;;;;;36.00;31.00;;;;;-143.90;100.00;74394.94;4995236;28;101882;-75
2023/10/26 01:23:02;;;;;;;;;20.00;17.50;;;;;-143.90;100.00;74378.41;4996658;27;101588;-76
2023/10/26 01:25:29;;;;;;;;;13.75;12.75;;;;;-143.90;100.00;74374.28;4997203;27;103479;-77
2023/10/26 01:27:56;;;;;;;;;17.00;17.00;;;;;-143.90;100.00;74374.28;4997146;27;102317;-77
2023/10/26 01:30:22;;;;;;;;;20.50;18.75;;;;;-143.90;100.00;74368.09;4993722;28;101885;-76
2023/10/26 01:32:49;;;;;;;;;17.50;16.50;;;;;-143.90;100.00;74353.63;4998199;28;101895;-76
2023/10/26 01:35:16;;;;;;;;;17.50;15.75;;;;;-143.90;100.00;74345.34;5001720;28;103519;-76
2023/10/26 01:37:42;;;;;;;;;16.00;14.25;;;;;-143.90;100.00;74332.94;5002063;28;101617;-74
2023/10/26 01:40:10;;;;;;;;;16.75;16.75;;;;;-143.90;100.00;74324.69;4998104;28;101810;-77
2023/10/26 01:42:37;;;;;;;;;15.50;14.50;;;;;-143.90;100.00;74320.53;4995221;28;102073;-77
2023/10/26 01:45:03;;;;;;;;;22.50;19.75;;;;;-143.90;100.00;74312.28;4990529;27;103370;-77
2023/10/26 01:47:30;;;;;;;;;17.75;16.75;;;;;-143.90;100.00;74308.13;5000325;27;101854;-77
2023/10/26 01:49:59;;;;;;;;;24.75;23.00;;;;;-143.90;100.00;74304.00;4999377;28;101597;-76
2023/10/26 01:52:25;;;;;;;;;25.50;24.50;;;;;-143.90;100.00;74304.00;4978943;28;101957;-76
2023/10/26 01:54:52;;;;;;;;;8.50;8.50;;;;;-143.90;100.00;74283.34;4989531;27;103547;-77
2023/10/26 01:57:18;;;;;;;;;14.50;13.00;;;;;-143.90;100.00;74275.06;5000296;27;101998;-76
2023/10/26 01:59:45;;;;;;;;;24.50;19.75;;;;;-143.90;100.00;74262.66;5000243;27;101643;-76
2023/10/26 02:02:12;;;;;;;;;55.33;45.67;;;;;-143.90;100.00;74270.94;4982077;28;101658;-74
2023/10/26 02:04:38;;;;;;;;;72.00;54.00;;;;;-143.90;100.00;74285.41;4998408;28;103340;-77
2023/10/26 02:07:05;;;;;;;;;67.00;50.67;;;;;-143.90;100.00;74270.94;4992000;28;101681;-76
2023/10/26 02:09:31;;;;;;;;;54.67;45.00;;;;;-143.90;100.00;74262.66;5003237;28;102066;-75
2023/10/26 02:11:58;;;;;;;;;51.25;41.25;;;;;-143.90;100.00;74242.00;5002626;27;101545;-75
2023/10/26 02:14:25;;;;;;;;;40.50;37.25;;;;;-143.90;100.00;74233.72;4998304;28;104667;-75
2023/10/26 02:16:51;;;;;;;;;49.25;41.00;;;;;-143.90;100.00;74227.53;4997691;27;105575;-74
2023/10/26 02:19:18;;;;;;;;;39.75;34.50;;;;;-143.90;100.00;74225.47;4992068;27;102272;-74
2023/10/26 02:21:45;;;;;;;;;58.50;42.50;;;;;-143.90;100.00;74225.47;5003327;27;101837;-74
2023/10/26 02:24:11;;;;;;;;;39.50;35.50;;;;;-143.90;100.00;74221.31;4999730;27;103603;-74
2023/10/26 02:26:38;;;;;;;;;28.50;25.50;;;;;-143.90;100.00;74217.19;4999902;27;101863;-75
2023/10/26 02:29:04;;;;;;;;;29.00;27.00;;;;;-143.90;100.00;74213.06;4993816;28;101683;-75
2023/10/26 02:31:31;;;;;;;;;23.50;22.00;;;;;-143.90;100.00;74213.06;4996550;27;101843;-76
2023/10/26 02:33:58;;;;;;;;;23.25;20.50;;;;;-143.90;100.00;74208.94;5003829;27;104167;-76
2023/10/26 02:36:24;;;;;;;;;25.50;24.00;;;;;-143.90;100.00;74208.94;4983178;28;102071;-75
2023/10/26 02:38:51;;;;;;;;;20.75;16.00;;;;;-143.90;100.00;74204.78;4996390;27;101728;-75
2023/10/26 02:41:17;;;;;;;;;15.50;14.50;;;;;-143.90;100.00;74206.88;4998410;28;101874;-74
2023/10/26 02:43:44;;;;;;;;;33.75;30.00;;;;;-143.90;100.00;74217.19;4995718;28;103388;-75
2023/10/26 02:46:11;;;;;;;;;33.75;30.25;;;;;-143.90;100.00;74219.25;5003011;27;101728;-75
2023/10/26 02:48:40;;;;;;;;;39.25;32.00;;;;;-143.90;100.00;74213.06;5001374;28;101669;-74
2023/10/26 02:51:07;;;;;;;;;27.75;24.25;;;;;-143.90;100.00;74208.94;4994251;28;101592;-75
2023/10/26 02:53:33;;;;;;;;;24.75;20.00;;;;;-143.90;100.00;74208.94;4976609;28;103554;-75
2023/10/26 02:56:00;;;;;;;;;18.00;15.00;;;;;-143.90;100.00;74215.13;4997031;28;101612;-75
2023/10/26 02:58:26;;;;;;;;;19.50;17.75;;;;;-143.90;100.00;74221.31;5002473;28;101518;-74
2023/10/26 03:00:54;;;;;;;;;15.75;14.00;;;;;-143.90;100.00;74229.59;5001278;27;102034;-75
2023/10/26 03:03:22;;;;;;;;;15.50;14.25;;;;;-143.90;100.00;74237.88;4995272;27;103484;-75
2023/10/26 03:05:48;;;;;;;;;18.00;14.25;;;;;-143.90;100.00;74242.00;4993474;28;101832;-75
2023/10/26 03:08:15;;;;;;;;;19.00;15.00;;;;;-143.90;100.00;74252.34;5000849;27;101715;-74
2023/10/26 03:10:42;;;;;;;;;9.50;8.75;;;;;-143.90;100.00;74248.19;5000349;28;101649;-75
2023/10/26 03:13:08;;;;;;;;;13.50;12.75;;;;;-143.90;100.00;74250.25;4991697;27;106689;-75
2023/10/26 03:15:35;;;;;;;;;17.75;13.75;;;;;-143.90;100.00;74233.72;4989422;27;101752;-76
2023/10/26 03:18:02;;;;;;;;;22.50;19.75;;;;;-143.90;100.00;74233.72;4987476;27;101581;-74
2023/10/26 03:20:31;;;;;;;;;18.50;15.50;;;;;-143.90;100.00;74225.47;4993228;27;102062;-74
2023/10/26 03:22:58;;;;;;;;;23.75;19.50;;;;;-143.90;100.00;74217.19;4994507;27;103311;-75
2023/10/26 03:25:24;;;;;;;;;48.25;39.50;;;;;-143.90;100.00;74215.13;4984599;27;101858;-75
2023/10/26 03:27:51;;;;;;;;;36.25;29.75;;;;;-143.90;100.00;74225.47;4991298;28;102344;-74
2023/10/26 03:30:18;;;;;;;;;32.75;29.50;;;;;-143.90;100.00;74229.59;4992201;27;101839;-74
2023/10/26 03:32:44;;;;;;;;;23.00;19.50;;;;;-143.90;100.00;74223.41;4978589;27;103400;-76
2023/10/26 03:35:11;;;;;;;;;27.75;24.25;;;;;-143.90;100.00;74223.41;5000476;27;101908;-74
2023/10/26 03:37:38;;;;;;;;;17.00;16.25;;;;;-143.90;100.00;74217.19;5002586;27;102195;-74
2023/10/26 03:40:05;;;;;;;;;19.00;15.00;;;;;-143.90;100.00;74211.00;4999182;27;101745;-75
2023/10/26 03:42:32;;;;;;;;;12.75;11.50;;;;;-143.90;100.00;74217.19;4995984;28;104860;-75
2023/10/26 03:44:59;;;;;;;;;12.75;11.50;;;;;-143.90;100.00;74215.13;5003503;27;101777;-74
2023/10/26 03:47:26;;;;;;;;;19.50;18.25;;;;;-143.90;100.00;74215.13;5004124;27;101789;-75
2023/10/26 03:49:52;;;;;;;;;12.25;10.50;;;;;-143.90;100.00;74217.19;4993136;27;101864;-76
2023/10/26 03:52:20;;;;;;;;;18.00;15.25;;;;;-143.90;100.00;74221.31;4993454;27;103419;-75
2023/10/26 03:54:48;;;;;;;;;32.00;27.75;;;;;-143.90;100.00;74215.13;4990488;28;101877;-75
2023/10/26 03:57:17;;;;;;;;;29.25;26.25;;;;;-143.90;100.00;74211.00;4996859;27;101876;-74
2023/10/26 03:59:44;;;;;;;;;38.75;25.75;;;;;-143.90;100.00;74213.06;5000466;27;102031;-75
2023/10/26 04:02:11;;;;;;;;;35.50;23.50;;;;;-143.90;100.00;74204.78;4998510;27;108399;-76
2023/10/26 04:04:39;;;;;;;;;39.75;30.50;;;;;-143.90;100.00;74200.66;4975847;28;102562;-76
2023/10/26 04:07:05;;;;;;;;;28.25;25.50;;;;;-143.90;100.00;74190.31;4991183;28;101475;-75
2023/10/26 04:09:32;;;;;;;;;20.00;19.00;;;;;-143.90;100.00;74186.19;4995138;28;102045;-76
2023/10/26 04:11:59;;;;;;;;;29.00;23.00;;;;;-143.90;100.00;74173.78;4996548;27;104257;-74
2023/10/26 04:14:26;;;;;;;;;45.00;35.25;;;;;-143.90;100.00;74171.72;4990133;28;103467;-76
2023/10/26 04:16:53;;;;;;;;;34.25;31.00;;;;;-143.90;100.00;74165.53;4991523;27;101937;-75
2023/10/26 04:19:19;;;;;;;;;23.25;21.00;;;;;-143.90;100.00;74146.91;4989907;27;101940;-76
2023/10/26 04:21:46;;;;;;;;;37.50;31.50;;;;;-143.90;100.00;74153.13;4999700;27;102869;-74
2023/10/26 04:24:12;;;;;;;;;27.50;25.50;;;;;-143.90;100.00;74140.72;4998891;27;101928;-74
2023/10/26 04:26:39;;;;;;;;;29.25;25.50;;;;;-143.90;100.00;74130.38;4990492;28;101996;-76
2023/10/26 04:29:06;;;;;;;;;25.50;21.75;;;;;-143.90;100.00;74118.00;4988545;28;102286;-77
2023/10/26 04:31:34;;;;;;;;;37.75;33.00;;;;;-143.90;100.00;74118.00;4993130;28;103396;-76
2023/10/26 04:34:00;;;;;;;;;23.00;20.75;;;;;-143.90;100.00;74109.72;5005404;28;101878;-76
2023/10/26 04:36:27;;;;;;;;;29.00;27.25;;;;;-143.90;100.00;74101.44;4998700;27;101744;-76
2023/10/26 04:38:54;;;;;;;;;15.50;14.00;;;;;-143.90;100.00;74099.38;4998985;28;101839;-75
2023/10/26 04:41:21;;;;;;;;;20.25;18.00;;;;;-143.90;100.00;74103.53;4992841;28;103349;-76
2023/10/26 04:43:47;;;;;;;;;23.50;19.50;;;;;-143.90;100.00;74095.25;4993422;28;102762;-76
2023/10/26 04:46:14;;;;;;;;;25.50;21.25;;;;;-143.90;100.00;74091.13;4998367;27;102025;-76
2023/10/26 04:48:40;;;;;;;;;19.75;17.75;;;;;-143.90;100.00;74095.25;4998606;27;101930;-75
2023/10/26 04:51:08;;;;;;;;;22.50;21.25;;;;;-143.90;100.00;74105.59;4995732;27;103525;-76
2023/10/26 04:53:35;;;;;;;;;40.75;34.50;;;;;-143.90;100.00;74113.84;4989836;27;101551;-76
2023/10/26 04:56:02;;;;;;;;;30.00;26.75;;;;;-143.90;100.00;74101.44;4994958;27;101692;-76
2023/10/26 04:58:29;;;;;;;;;27.50;24.25;;;;;-143.90;100.00;74089.06;4999645;27;101587;-76
2023/10/26 05:00:56;;;;;;;;;24.00;20.75;;;;;-143.90;100.00;74068.38;4994258;27;103362;-75
2023/10/26 05:03:22;;;;;;;;;15.50;13.00;;;;;-143.90;100.00;74064.25;4993755;27;101917;-76
2023/10/26 05:05:49;;;;;;;;;16.75;16.50;;;;;-143.90;100.00;74055.97;4972081;27;103912;-77
2023/10/26 05:08:16;;;;;;;;;18.25;17.25;;;;;-143.90;100.00;74051.84;5000976;27;101577;-75
2023/10/26 05:10:42;;;;;;;;;19.50;14.75;;;;;-143.90;100.00;74043.59;5000191;27;103531;-77
2023/10/26 05:13:10;;;;;;;;;17.75;13.75;;;;;-143.90;100.00;74029.13;4996947;27;101739;-76
2023/10/26 05:15:37;;;;;;;;;15.25;14.75;;;;;-143.90;100.00;74012.56;4995396;27;101442;-76
2023/10/26 05:18:04;;;;;;;;;24.25;21.75;;;;;-143.90;100.00;74002.25;4996542;27;101743;-76
2023/10/26 05:20:32;;;;;;;;;19.00;17.25;;;;;-143.90;100.00;74002.25;4993150;27;103562;-76
2023/10/26 05:23:00;;;;;;;;;21.50;20.75;;;;;-143.90;100.00;73989.84;5002074;27;101767;-77
2023/10/26 05:25:26;;;;;;;;;20.50;18.50;;;;;-143.90;100.00;74002.25;4994834;28;101677;-77
2023/10/26 05:27:53;;;;;;;;;19.00;15.25;;;;;-143.90;100.00;74000.19;4997607;28;101565;-76
2023/10/26 05:30:20;;;;;;;;;16.25;13.75;;;;;-143.90;100.00;74004.31;4969256;28;103527;-75
2023/10/26 05:32:46;;;;;;;;;15.00;11.00;;;;;-143.90;100.00;73998.13;4980563;28;101704;-76
2023/10/26 05:35:14;;;;;;;;;14.50;11.00;;;;;-143.90;100.00;73989.84;4982614;28;101834;-77
2023/10/26 05:37:40;;;;;;;;;14.75;14.00;;;;;-143.90;100.00;73973.31;4996514;28;102695;-76
2023/10/26 05:40:08;;;;;;;;;18.75;17.75;;;;;-143.90;100.00;73969.19;4992911;28;103578;-77
2023/10/26 05:42:35;;;;;;;;;10.00;9.25;;;;;-143.90;100.00;73960.91;4987855;28;101759;-77
2023/10/26 05:45:02;;;;;;;;;13.75;12.75;;;;;-143.90;100.00;73960.91;5000532;27;101522;-76
2023/10/26 05:47:29;;;;;;;;;16.00;13.75;;;;;-143.90;100.00;73960.91;4999858;27;101702;-76
2023/10/26 05:49:56;;;;;;;;;13.00;10.75;;;;;-143.90;100.00;73950.56;4993342;27;103602;-76
2023/10/26 05:52:22;;;;;;;;;10.25;9.50;;;;;-143.90;100.00;73948.50;4993314;28;101586;-76
2023/10/26 05:54:51;;;;;;;;;11.00;9.75;;;;;-143.90;100.00;73948.50;4995904;27;101519;-76
2023/10/26 05:57:17;;;;;;;;;9.75;8.25;;;;;-143.90;100.00;73950.56;4978086;28;102550;-76
2023/10/26 05:59:44;;;;;;;;;14.00;12.75;;;;;-143.90;100.00;73938.19;4999152;27;103400;-76
2023/10/26 06:02:11;;;;;;;;;10.00;8.25;;;;;-143.90;100.00;73931.97;4997886;27;101740;-77
2023/10/26 06:04:37;;;;;;;;;13.75;12.25;;;;;-143.90;100.00;73934.03;4993051;28;101993;-77
2023/10/26 06:07:04;;;;;;;;;13.25;11.00;;;;;-143.90;100.00;73931.97;4980358;28;101779;-75
2023/10/26 06:09:30;;;;;;;;;11.25;10.00;;;;;-143.90;100.00;73925.78;5004187;27;103427;-76
2023/10/26 06:11:57;;;;;;;;;9.75;9.75;;;;;-143.90;100.00;73919.56;4999182;27;102857;-77
2023/10/26 06:14:24;;;;;;;;;31.00;28.00;;;;;-143.90;100.00;73915.44;4978467;27;102069;-77
2023/10/26 06:16:50;;;;;;;;;10.50;9.00;;;;;-143.90;100.00;73911.31;4995774;27;101979;-77
2023/10/26 06:19:17;;;;;;;;;9.00;6.50;;;;;-143.90;100.00;73913.38;4992799;27;103227;-76
2023/10/26 06:21:44;;;;;;;;;19.00;14.25;;;;;-143.90;100.00;73907.16;5000567;27;101862;-77
2023/10/26 06:24:10;;;;;;;;;15.00;12.25;;;;;-143.90;100.00;73909.25;4999316;27;103339;-75
2023/10/26 06:26:37;;;;;;;;;10.50;10.50;;;;;-143.90;100.00;73905.09;4993918;27;101698;-76
2023/10/26 06:29:04;;;;;;;;;13.25;11.00;;;;;-143.90;100.00;73907.16;4992633;27;103386;-77
2023/10/26 06:31:30;;;;;;;;;17.75;17.00;;;;;-143.90;100.00;73903.03;4991294;28;101922;-77
2023/10/26 06:33:57;;;;;;;;;11.50;10.50;;;;;-143.90;100.00;73900.97;4999009;27;101826;-77
2023/10/26 06:36:24;;;;;;;;;16.25;14.00;;;;;-143.90;100.00;73888.56;4981746;28;101697;-77
2023/10/26 06:38:54;;;;;;;;;13.00;12.00;;;;;-143.90;100.00;73878.25;4995373;27;103577;-78
2023/10/26 06:41:20;;;;;;;;;13.00;11.75;;;;;-143.90;100.00;73872.03;4994355;27;101866;-77
2023/10/26 06:43:47;;;;;;;;;14.75;13.25;;;;;-143.90;100.00;73865.84;4991156;28;101769;-77
2023/10/26 06:46:14;;;;;;;;;13.25;11.00;;;;;-143.90;100.00;73861.69;4994397;28;101573;-77
2023/10/26 06:48:40;;;;;;;;;11.50;11.50;;;;;-143.90;100.00;73863.78;4998095;28;106814;-77
2023/10/26 06:51:07;;;;;;;;;11.00;9.50;;;;;-143.90;100.00;73853.44;4996112;28;101662;-76
2023/10/26 06:53:34;;;;;;;;;12.00;10.25;;;;;-143.90;100.00;73847.25;4988773;27;101761;-77
2023/10/26 06:56:00;;;;;;;;;10.00;9.00;;;;;-143.90;100.00;73841.03;4982892;28;101674;-77
2023/10/26 06:58:27;;;;;;;;;9.50;9.25;;;;;-143.90;100.00;73841.03;5000632;27;103539;-76
2023/10/26 07:00:54;;;;;;;;;8.00;7.50;;;;;-143.90;100.00;73832.78;4995509;27;101526;-75
2023/10/26 07:03:21;;;;;;;;;7.75;7.75;;;;;-143.90;100.00;73828.63;4994171;28;102285;-77
2023/10/26 07:05:48;;;;;;;;;9.75;8.75;;;;;-143.90;100.00;73816.25;4978987;28;101891;-77
2023/10/26 07:08:16;;;;;;;;;9.75;9.00;;;;;-143.90;100.00;73826.56;4990958;27;103435;-77
2023/10/26 07:10:42;;;;;;;;;11.50;9.00;;;;;-143.90;100.00;73824.50;5001263;27;102216;-77
2023/10/26 07:13:09;;;;;;;;;12.75;11.50;;;;;-143.90;100.00;73824.50;4995749;27;101611;-77
2023/10/26 07:15:36;;;;;;;;;11.00;10.00;;;;;-143.90;100.00;73812.09;4996321;27;101701;-75
2023/10/26 07:18:04;;;;;;;;;15.75;10.75;;;;;-143.90;100.00;73810.03;4995318;27;103427;-78
2023/10/26 07:20:31;;;;;;;;;9.00;7.25;;;;;-143.90;100.00;73803.84;4981061;27;102523;-78
2023/10/26 07:22:58;;;;;;;;;10.75;9.25;;;;;-143.90;100.00;73795.56;4998468;27;101490;-78
2023/10/26 07:25:25;;;;;;;;;12.00;11.25;;;;;-143.90;100.00;73797.63;4979353;27;103879;-77
2023/10/26 07:27:51;;;;;;;;;12.00;11.00;;;;;-143.90;100.00;73783.16;4976801;28;103849;-78
2023/10/26 07:30:18;;;;;;;;;10.50;9.25;;;;;-143.90;100.00;73770.78;4974064;28;101942;-77
2023/10/26 07:32:45;;;;;;;;;9.25;9.00;;;;;-143.90;100.00;73752.16;4999158;27;101524;-75
2023/10/26 07:35:14;;;;;;;;;9.25;9.00;;;;;-143.90;100.00;73741.84;4985263;27;102126;-78
2023/10/26 07:37:41;;;;;;;;;10.00;8.00;;;;;-143.90;100.00;73737.69;4993878;27;107889;-77
2023/10/26 07:40:09;;;;;;;;;9.50;8.75;;;;;-143.90;100.00;73725.31;4993896;28;101787;-77
2023/10/26 07:42:55;;;;;;;;;10.00;9.00;;;;;-143.90;100.00;73714.97;4990149;28;101652;-78
2023/10/26 07:45:22;;;;;;;;;14.50;9.75;;;;;-143.90;100.00;73712.91;5001201;27;101498;-78
2023/10/26 07:47:48;;;;;;;;;13.00;12.50;;;;;-143.90;100.00;73696.38;4998181;27;103410;-77
2023/10/26 07:50:19;;;;;;;;;13.25;10.50;;;;;-143.90;100.00;73688.09;4994740;27;101571;-77
2023/10/26 07:52:47;;;;;;;;;19.00;16.00;;;;;-143.90;100.00;73690.16;4992360;28;101681;-78
2023/10/26 07:55:14;;;;;;;;;14.75;10.25;;;;;-143.90;100.00;73688.09;4996936;28;101792;-78
2023/10/26 07:57:41;;;;;;;;;20.25;12.50;;;;;-143.90;100.00;73683.97;4999946;27;107046;-78
2023/10/26 08:00:11;;;;;;;;;16.00;13.75;;;;;-143.90;100.00;73690.16;4995546;28;101964;-77
2023/10/26 08:02:38;;;;;;;;;15.00;13.00;;;;;-143.90;100.00;73692.25;4995618;27;101832;-79
2023/10/26 08:05:08;;;;;;;;;15.50;12.00;;;;;-143.90;100.00;73679.84;4992255;28;101850;-77
2023/10/26 08:07:36;;;;;;;;;9.75;8.00;;;;;-143.90;100.00;73675.69;4996959;28;103358;-78
2023/10/26 08:10:04;;;;;;;;;12.25;12.00;;;;;-143.90;100.00;73667.44;4992342;28;102454;-78
2023/10/26 08:12:31;;;;;;;;;11.25;8.75;;;;;-143.90;100.00;73671.56;4996793;27;102107;-80
2023/10/26 08:14:57;;;;;;;;;11.00;9.00;;;;;-143.90;100.00;73663.31;4998018;27;101954;-77
2023/10/26 08:17:44;;;;;;;;;7.50;7.50;;;;;-143.90;100.00;73655.03;4979704;28;110111;-79
2023/10/26 08:20:12;;;;;;;;;7.00;5.00;;;;;-143.90;100.00;73652.97;4982388;28;101553;-78
2023/10/26 08:22:39;;;;;;;;;10.00;6.00;;;;;-143.90;100.00;73640.56;4998259;28;101686;-78
2023/10/26 08:25:06;;;;;;;;;8.00;8.00;;;;;-143.90;100.00;73644.69;5002081;28;101778;-76
2023/10/26 08:27:35;;;;;;;;;6.25;5.00;;;;;-143.90;100.00;73632.31;4992138;28;104070;-78
2023/10/26 08:30:06;;;;;;;;;4.00;3.25;;;;;-143.90;100.00;73638.50;4995448;27;101625;-78
2023/10/26 08:32:32;;;;;;;;;3.75;3.75;;;;;-143.90;100.00;73638.50;4995789;27;101987;-78
2023/10/26 08:34:59;;;;;;;;;7.50;5.00;;;;;-143.90;100.00;73644.69;4982911;28;101722;-79
2023/10/26 08:37:27;;;;;;;;;8.25;6.50;;;;;-143.90;100.00;73636.44;4999209;27;103360;-78
2023/10/26 08:39:55;;;;;;;;;10.50;10.25;;;;;-143.90;100.00;73638.50;4976791;27;101763;-76
2023/10/26 08:42:22;;;;;;;;;9.00;8.00;;;;;-143.90;100.00;73619.91;4991247;28;103272;-77
2023/10/26 08:44:48;;;;;;;;;6.00;5.50;;;;;-143.90;100.00;73615.78;5001678;27;101707;-78
2023/10/26 08:47:17;;;;;;;;;4.00;4.00;;;;;-143.90;100.00;73595.09;5001049;28;104816;-78
2023/10/26 08:49:46;;;;;;;;;4.00;3.00;;;;;-143.90;100.00;73593.03;4995972;28;105162;-75
2023/10/26 08:52:33;;;;;;;;;5.25;2.00;;;;;-143.90;100.00;73568.25;4993431;27;101906;-76
2023/10/26 08:55:00;;;;;;;;;4.00;3.00;;;;;-143.90;100.00;73551.72;4992737;28;101645;-76
2023/10/26 08:57:26;;;;;;;;;3.00;3.00;;;;;-143.90;100.00;73543.44;4997672;28;104140;-77
2023/10/26 08:59:53;;;;;;;;;4.00;3.00;;;;;-143.90;100.00;73520.72;4998517;27;101920;-78
2023/10/26 09:02:20;;;;;;;;;3.00;3.00;;;;;-143.90;100.00;73526.91;4995751;28;101514;-78
2023/10/26 09:05:04;;;;;;;;;3.00;3.00;;;;;-143.90;100.00;73514.50;4978368;28;102617;-77
2023/10/26 09:07:31;;;;;;;;;3.25;3.00;;;;;-143.90;100.00;73483.50;4998889;27;103347;-77
2023/10/26 09:09:57;;;;;;;;;3.00;2.25;;;;;-143.90;100.00;73469.03;4983588;28;101817;-77
2023/10/26 09:12:24;;;;;;;;;3.00;3.00;;;;;-143.90;100.00;73469.03;4998865;28;101513;-79
2023/10/26 09:15:06;;;;;;;;;3.00;2.00;;;;;-143.90;100.00;73458.72;4999004;28;102049;-77
2023/10/26 09:17:34;;;;;;;;;2.00;2.00;;;;;-143.90;100.00;73469.03;4976752;28;103713;-78
2023/10/26 09:20:27;;;;;;;;;3.25;3.00;;;;;-143.90;100.00;73460.78;4995458;28;102122;-77
2023/10/26 09:22:55;;;;;;;;;2.00;2.00;;;;;-143.90;100.00;73444.25;4995377;27;101940;-78
2023/10/26 09:25:22;;;;;;;;;2.00;2.00;;;;;-143.90;100.00;73446.31;4997625;28;101871;-78
2023/10/26 09:28:00;;;;;;;;;2.75;2.00;;;;;-143.90;100.00;73431.84;4993730;28;103336;-78
2023/10/26 09:30:29;;;;;;;;;2.25;2.00;;;;;-143.90;98.38;73421.53;4975073;28;101613;-76
2023/10/26 09:32:56;;;;;;;;;1.50;1.50;;;;;-143.90;98.98;73409.13;5002467;27;102012;-78
2023/10/26 09:35:29;;;;;;;;;2.00;2.00;;;;;-143.90;98.47;73394.66;5003811;27;101814;-76
2023/10/26 09:37:57;;;;;;;;;1.50;1.50;;;;;-143.90;97.46;73394.66;4974885;28;103662;-77
2023/10/26 09:40:26;;;;;;;;;2.00;2.00;;;;;-143.90;97.43;73400.84;4997658;28;101783;-77
2023/10/26 09:42:56;;;;;;;;;2.50;2.00;;;;;-143.90;96.52;73407.06;4977033;28;101691;-76
2023/10/26 09:45:25;;;;;;;;;1.00;1.00;;;;;-143.90;97.01;73411.19;4999499;28;101466;-77
2023/10/26 09:47:52;;;;;;;;;2.00;2.00;;;;;-143.90;97.53;73409.13;4994763;27;103434;-77
2023/10/26 09:50:18;;;;;;;;;3.00;2.00;;;;;-143.90;96.35;73415.31;4996025;28;101698;-77
2023/10/26 09:52:46;;;;;;;;;1.75;1.00;;;;;-143.90;96.52;73423.59;4977361;28;101676;-78
2023/10/26 09:55:13;;;;;;;;;2.75;2.00;;;;;-143.90;96.55;73417.38;4999892;27;101797;-76
2023/10/26 09:58:04;;;;;;;;;1.25;1.25;;;;;-143.90;98.21;73404.97;4981585;27;103357;-78
2023/10/26 10:00:34;;;;;;;;;2.00;1.25;;;;;-143.90;94.86;73404.97;4977511;27;102093;-77
2023/10/26 10:03:15;;;;;;;;;1.50;1.50;;;;;-143.90;95.57;73390.53;4995588;27;104735;-78
2023/10/26 10:05:43;;;;;;;;;1.00;0.50;;;;;-143.90;94.23;73386.38;4991677;27;101836;-78
2023/10/26 10:08:11;;;;;;;;;1.00;1.00;;;;;-143.90;93.67;73374.00;4996306;27;103440;-76
2023/10/26 10:11:13;;;;;;;;;1.50;1.00;;;;;-143.90;91.65;73355.38;5003247;27;102301;-77
2023/10/26 10:13:40;;;;;;;;;1.00;1.00;;;;;-143.90;92.05;73345.06;4995902;27;101586;-77
2023/10/26 10:16:35;;;;;;;;;1.75;1.50;;;;;-143.90;92.07;73340.94;4976645;27;102009;-78
2023/10/26 10:19:19;;;;;;;;;2.50;2.50;;;;;-143.90;89.04;73334.72;4973082;28;108256;-77
2023/10/26 10:21:48;;;;;;;;;2.00;1.25;;;;;-143.90;89.25;73318.19;5002258;27;101938;-77
2023/10/26 10:24:39;;;;;;;;;2.50;1.00;;;;;-143.90;86.59;73322.31;4974801;28;101758;-77
2023/10/26 10:27:07;;;;;;;;;2.50;2.00;;;;;-143.90;86.16;73334.72;4992998;28;103183;-77
2023/10/26 10:29:33;;;;;;;;;2.25;1.50;;;;;-143.90;88.93;73328.53;4971342;28;103265;-77
2023/10/26 10:32:00;;;;;;;;;2.25;2.25;;;;;-143.90;87.28;73316.13;4996741;27;101541;-78
2023/10/26 10:34:33;;;;;;;;;3.00;2.50;;;;;-143.90;86.94;73312.00;4998916;27;102141;-76
2023/10/26 10:37:21;;;;;;;;;1.00;1.00;;;;;-143.90;87.39;73318.19;4998085;27;101961;-78
2023/10/26 10:40:14;;;;;;;;;2.25;2.00;;;;;-143.90;86.71;73307.84;4986614;27;108161;-76
2023/10/26 10:42:49;;;;;;;;;1.50;1.25;;;;;-143.90;84.77;73309.94;4974776;28;101957;-77
2023/10/26 10:45:17;;;;;;;;;2.50;2.50;;;;;-143.90;87.55;73314.06;5000424;27;101843;-78
2023/10/26 10:47:49;;;;;;;;;3.25;3.00;;;;;-143.90;86.05;73301.66;4997975;27;101545;-78
2023/10/26 10:50:24;;;;;;;;;2.00;2.00;;;;;-143.90;86.11;73307.84;4979580;28;108074;-76
2023/10/26 10:52:56;;;;;;;;;2.50;2.50;;;;;-143.90;85.77;73318.19;4986979;27;101856;-78
2023/10/26 10:55:27;;;;;;;;;3.00;3.00;;;;;-143.90;86.51;73318.19;4990525;27;101988;-77
2023/10/26 10:57:59;;;;;;;;;2.00;2.00;;;;;-143.90;86.24;73316.13;4999714;27;101633;-77